Geddes, New York
Current Conditions -  °F | °C
As of 10:54 AM on Sunday 21 Dec 2014 (Local Time) from KSYR Reporting Station
Light Snow Light Snow  
Wind Chill: 25°   Ceiling: 2200
Heat Index: 30°   Visibility: 6mi
Dew Point: 24°   Wind: 5mph
Humidity: 79%   Direction: 230°SW
Pressure: 30.34"   Gusts: NA
Location:  43.0845°N, 76.247°W
Report Text: KSYR 211554Z 23004KT 6SM -SN OVC022 M01/M04 A3034 RMK AO2 SLP277 P0000 T10111044 $
Loading
Personal Weather Stations






























Interactive Weather Map New forecast layout! Learn more

10-Day Weather Forecast

Advertisements
Track Severe Weather on mobile